createdAt,value
2019-01-21T00:01:03.409Z,6.43
2019-01-21T00:03:31.768Z,4.70
2019-01-21T00:06:00.165Z,6.73
2019-01-21T00:08:28.550Z,6.17
2019-01-21T00:10:56.956Z,8.17
2019-01-21T00:13:25.377Z,7.23
2019-01-21T00:15:54.361Z,7.00
2019-01-21T00:18:23.101Z,7.60
2019-01-21T00:20:51.453Z,9.10
2019-01-21T00:23:20.473Z,9.85
2019-01-21T00:25:48.789Z,9.10
2019-01-21T00:28:17.285Z,10.30
2019-01-21T00:30:45.678Z,8.20
2019-01-21T00:33:14.052Z,7.77
2019-01-21T00:35:42.616Z,7.73
2019-01-21T00:38:11.101Z,7.73
2019-01-21T00:40:39.501Z,15.07
2019-01-21T00:43:08.189Z,6.17
2019-01-21T00:45:36.637Z,5.17
2019-01-21T00:48:05.078Z,3.43
2019-01-21T00:50:33.566Z,4.20
2019-01-21T00:53:03.274Z,7.87
2019-01-21T00:55:31.872Z,3.80
2019-01-21T00:58:00.326Z,4.33
2019-01-21T01:00:28.741Z,4.10
2019-01-21T01:02:57.305Z,4.77
2019-01-21T01:05:25.804Z,5.80
2019-01-21T01:07:54.256Z,5.17
2019-01-21T01:10:23.452Z,3.13
2019-01-21T01:12:51.916Z,5.00
2019-01-21T01:15:20.312Z,3.43
2019-01-21T01:17:48.822Z,2.30
2019-01-21T01:20:19.193Z,3.67
2019-01-21T01:22:47.661Z,4.87
2019-01-21T01:25:16.077Z,3.47
2019-01-21T01:27:44.515Z,4.83
2019-01-21T01:30:14.937Z,6.77
2019-01-21T01:32:43.536Z,7.90
2019-01-21T01:35:13.447Z,3.07
2019-01-21T01:37:42.168Z,4.47
2019-01-21T01:40:13.641Z,4.90
2019-01-21T01:42:42.150Z,3.90
2019-01-21T01:45:12.938Z,2.67
2019-01-21T01:47:44.809Z,4.43
2019-01-21T01:50:11.517Z,2.50
2019-01-21T01:52:39.930Z,4.17
2019-01-21T01:55:08.822Z,2.37
2019-01-21T01:57:37.184Z,3.30
2019-01-21T02:00:09.388Z,2.93
2019-01-21T02:02:38.054Z,4.43
2019-01-21T02:05:06.855Z,4.27
2019-01-21T02:07:35.408Z,6.53
2019-01-21T02:10:04.870Z,3.90
2019-01-21T02:12:33.874Z,3.23
2019-01-21T02:15:06.055Z,5.90
2019-01-21T02:17:34.518Z,3.63
2019-01-21T02:20:04.406Z,4.13
2019-01-21T02:22:35.383Z,4.62
2019-01-21T02:25:05.112Z,5.23
2019-01-21T02:28:27.469Z,4.23
2019-01-21T02:31:14.867Z,5.23
2019-01-21T02:34:30.018Z,4.80
2019-01-21T02:37:39.742Z,4.17
2019-01-21T02:41:01.607Z,3.93
2019-01-21T02:44:17.705Z,4.00
2019-01-21T02:46:54.049Z,3.60
2019-01-21T02:50:15.847Z,2.30
2019-01-21T02:53:02.666Z,5.90
2019-01-21T02:55:58.817Z,3.33
2019-01-21T02:59:08.746Z,4.37
2019-01-21T03:02:43.334Z,4.78
2019-01-21T03:05:37.046Z,4.07
2019-01-21T03:08:59.338Z,3.17
2019-01-21T03:12:07.953Z,2.50
2019-01-21T03:15:07.057Z,3.93
2019-01-21T03:18:16.977Z,3.77
2019-01-21T03:21:13.807Z,5.40
2019-01-21T03:24:25.200Z,3.63
2019-01-21T03:27:49.973Z,4.10
2019-01-21T03:31:07.563Z,4.77
2019-01-21T03:34:15.060Z,4.83
2019-01-21T03:37:14.990Z,5.30
2019-01-21T03:40:29.861Z,3.17
2019-01-21T03:43:22.372Z,1.80
2019-01-21T03:46:42.940Z,3.67
2019-01-21T03:49:21.080Z,3.33
2019-01-21T03:52:38.593Z,3.87
2019-01-21T03:55:11.188Z,3.87
2019-01-21T03:58:20.662Z,3.53
2019-01-21T04:01:13.794Z,2.27
2019-01-21T04:04:44.885Z,2.60
2019-01-21T04:07:25.095Z,3.80
2019-01-21T04:10:33.678Z,4.90
2019-01-21T04:14:01.633Z,5.23
2019-01-21T04:17:15.566Z,3.83
2019-01-21T04:20:16.533Z,3.73
2019-01-21T04:23:32.524Z,3.80
2019-01-21T04:26:31.061Z,2.53
2019-01-21T04:29:09.914Z,4.33
2019-01-21T04:32:13.508Z,3.47
2019-01-21T04:35:29.481Z,3.43
2019-01-21T04:38:34.642Z,6.83
2019-01-21T04:41:32.431Z,2.80
2019-01-21T04:44:29.241Z,4.57
2019-01-21T04:47:31.186Z,7.43
2019-01-21T04:50:44.153Z,6.13
2019-01-21T04:53:36.067Z,5.47
2019-01-21T04:56:41.289Z,5.20
2019-01-21T04:59:43.497Z,4.67
2019-01-21T05:02:57.834Z,4.53
2019-01-21T05:06:02.895Z,4.83
2019-01-21T05:09:14.793Z,5.57
2019-01-21T05:12:29.666Z,4.23
2019-01-21T05:15:38.783Z,4.10
2019-01-21T05:18:47.810Z,4.20
2019-01-21T05:21:53.637Z,6.17
2019-01-21T05:24:55.596Z,3.70
2019-01-21T05:28:11.461Z,5.23
2019-01-21T05:31:23.223Z,6.57
2019-01-21T05:34:17.290Z,5.13
2019-01-21T05:37:16.873Z,4.10
2019-01-21T05:40:13.806Z,4.53
2019-01-21T05:43:29.713Z,3.07
2019-01-21T05:46:38.089Z,3.63
2019-01-21T05:49:46.859Z,5.33
2019-01-21T05:52:42.518Z,4.10
2019-01-21T05:56:23.146Z,5.33
2019-01-21T05:59:27.894Z,6.07
2019-01-21T06:02:20.830Z,7.30
2019-01-21T06:05:13.298Z,4.83
2019-01-21T06:08:38.133Z,5.00
2019-01-21T06:11:44.220Z,6.27
2019-01-21T06:15:01.826Z,7.37
2019-01-21T06:18:09.399Z,6.23
2019-01-21T06:20:55.517Z,6.83
2019-01-21T06:23:52.637Z,9.50
2019-01-21T06:27:11.293Z,7.12
2019-01-21T06:29:49.921Z,7.73
2019-01-21T06:33:12.853Z,5.77
2019-01-21T06:36:22.837Z,5.97
2019-01-21T06:39:32.894Z,5.87
2019-01-21T06:42:27.407Z,5.57
2019-01-21T06:45:21.981Z,6.33
2019-01-21T06:48:39.274Z,5.57
2019-01-21T06:52:03.055Z,7.93
2019-01-21T06:55:09.048Z,7.23
2019-01-21T06:58:12.058Z,4.80
2019-01-21T07:01:18.361Z,6.67
2019-01-21T07:04:35.514Z,7.93
2019-01-21T07:07:32.458Z,8.27
2019-01-21T07:10:26.617Z,7.53
2019-01-21T07:13:26.361Z,8.17
2019-01-21T07:16:31.820Z,10.63
2019-01-21T07:20:08.979Z,10.67
2019-01-21T07:23:10.101Z,10.67
2019-01-21T07:26:47.577Z,12.13
2019-01-21T07:30:15.562Z,10.55
2019-01-21T07:33:30.077Z,12.30
2019-01-21T07:36:37.825Z,13.87
2019-01-21T07:39:41.733Z,13.70
2019-01-21T07:42:49.005Z,9.53
2019-01-21T07:46:03.790Z,11.77
2019-01-21T07:49:09.293Z,12.17
2019-01-21T07:52:17.699Z,13.27
2019-01-21T07:55:28.005Z,9.67
2019-01-21T07:59:02.223Z,12.87
2019-01-21T08:02:12.392Z,12.17
2019-01-21T08:05:12.687Z,13.63
2019-01-21T08:08:17.613Z,12.40
2019-01-21T08:11:11.477Z,11.27
2019-01-21T08:14:06.399Z,13.10
2019-01-21T08:17:05.113Z,12.67
2019-01-21T08:20:06.042Z,9.63
2019-01-21T08:23:17.164Z,9.33
2019-01-21T08:26:17.757Z,13.80
2019-01-21T08:29:27.694Z,10.70
2019-01-21T08:32:59.057Z,13.40
2019-01-21T08:36:00.545Z,12.17
2019-01-21T08:38:56.720Z,12.77
2019-01-21T08:41:57.806Z,19.90
2019-01-21T08:45:12.822Z,15.73
2019-01-21T08:48:03.097Z,16.03
2019-01-21T08:51:00.393Z,14.70
2019-01-21T08:53:39.088Z,17.73
2019-01-21T08:57:05.105Z,14.07
2019-01-21T09:00:02.049Z,17.10
2019-01-21T09:02:58.498Z,10.87
2019-01-21T09:05:55.438Z,13.53
2019-01-21T09:09:06.337Z,14.23
2019-01-21T09:12:10.797Z,15.13
2019-01-21T09:15:18.900Z,17.30
2019-01-21T09:18:23.329Z,26.03
2019-01-21T09:21:42.130Z,14.07
2019-01-21T09:24:50.046Z,45.70
2019-01-21T09:28:18.297Z,21.23
2019-01-21T09:31:13.120Z,21.50
2019-01-21T09:34:06.401Z,20.30
2019-01-21T09:37:30.017Z,16.17
2019-01-21T09:40:40.872Z,15.63
2019-01-21T09:43:50.250Z,14.70
2019-01-21T09:46:43.641Z,14.90
2019-01-21T09:49:10.878Z,14.23
2019-01-21T09:51:42.624Z,18.23
2019-01-21T09:54:11.233Z,10.33
2019-01-21T09:56:40.528Z,20.10
2019-01-21T09:59:10.333Z,17.30
2019-01-21T10:01:38.649Z,17.93
2019-01-21T10:04:07.932Z,13.67
2019-01-21T10:06:44.482Z,11.17
2019-01-21T10:09:44.690Z,11.97
2019-01-21T10:12:50.369Z,13.90
2019-01-21T10:15:44.686Z,13.10
2019-01-21T10:19:02.518Z,11.47
2019-01-21T10:22:11.076Z,11.57
2019-01-21T10:25:19.830Z,10.60
2019-01-21T10:28:06.208Z,14.17
2019-01-21T10:31:02.439Z,14.83
2019-01-21T10:34:24.722Z,10.47
2019-01-21T10:37:43.534Z,12.80
2019-01-21T10:40:30.542Z,16.00
2019-01-21T10:43:34.600Z,11.73
2019-01-21T10:46:20.178Z,13.73
2019-01-21T10:49:11.732Z,15.70
2019-01-21T10:52:15.961Z,14.40
2019-01-21T10:55:38.508Z,13.13
2019-01-21T10:58:23.973Z,10.87
2019-01-21T11:01:49.666Z,12.00
2019-01-21T11:04:59.184Z,10.57
2019-01-21T11:08:02.277Z,16.80
2019-01-21T11:10:41.388Z,14.10
2019-01-21T11:13:33.465Z,15.43
2019-01-21T11:16:16.336Z,22.63
2019-01-21T11:19:09.041Z,13.27
2019-01-21T11:21:46.507Z,17.17
2019-01-21T11:24:49.246Z,11.90
2019-01-21T11:27:54.741Z,14.60
2019-01-21T11:31:04.996Z,15.53
2019-01-21T11:33:59.793Z,15.38
2019-01-21T11:37:02.966Z,14.93
2019-01-21T11:40:07.756Z,16.70
2019-01-21T11:43:29.324Z,15.00
2019-01-21T11:46:57.437Z,17.17
2019-01-21T11:50:10.770Z,21.50
2019-01-21T11:53:06.942Z,21.30
2019-01-21T11:56:01.293Z,20.87
2019-01-21T11:59:15.980Z,24.00
2019-01-21T12:02:35.129Z,25.83
2019-01-21T12:05:34.213Z,26.40
2019-01-21T12:08:40.181Z,24.67
2019-01-21T12:11:31.467Z,25.07
2019-01-21T12:14:16.965Z,23.37
2019-01-21T12:17:09.902Z,27.43
2019-01-21T12:20:04.544Z,26.77
2019-01-21T12:22:51.938Z,24.70
2019-01-21T12:25:49.576Z,24.07
2019-01-21T12:28:28.823Z,21.70
2019-01-21T12:31:24.361Z,23.20
2019-01-21T12:34:14.569Z,26.97
2019-01-21T12:37:16.920Z,31.03
2019-01-21T12:40:15.628Z,27.60
2019-01-21T12:43:24.014Z,31.17
2019-01-21T12:46:10.928Z,32.90
2019-01-21T12:49:03.936Z,35.97
2019-01-21T12:52:06.368Z,38.95
2019-01-21T12:55:09.102Z,36.03
2019-01-21T12:58:38.697Z,38.33
2019-01-21T13:01:54.006Z,36.53
2019-01-21T13:04:43.577Z,28.23
2019-01-21T13:08:12.600Z,29.00
2019-01-21T13:11:11.689Z,31.67
2019-01-21T13:14:14.621Z,32.00
2019-01-21T13:17:08.606Z,31.27
2019-01-21T13:20:12.987Z,33.07
2019-01-21T13:23:15.904Z,31.63
2019-01-21T13:26:16.735Z,33.70
2019-01-21T13:29:35.601Z,32.50
2019-01-21T13:33:18.629Z,33.53
2019-01-21T13:36:21.837Z,32.63
2019-01-21T13:39:35.013Z,28.33
2019-01-21T13:42:15.116Z,26.57
2019-01-21T13:45:26.273Z,34.27
2019-01-21T13:48:07.849Z,29.23
2019-01-21T13:51:13.884Z,24.80
2019-01-21T13:54:20.180Z,25.87
2019-01-21T13:57:05.897Z,26.23
2019-01-21T14:00:16.494Z,30.97
2019-01-21T14:03:16.785Z,29.33
2019-01-21T14:06:23.558Z,28.60
2019-01-21T14:09:31.241Z,28.63
2019-01-21T14:12:16.271Z,26.20
2019-01-21T14:15:41.085Z,27.60
2019-01-21T14:18:47.217Z,21.70
2019-01-21T14:22:11.188Z,21.63
2019-01-21T14:25:18.490Z,25.30
2019-01-21T14:28:08.541Z,25.83
2019-01-21T14:30:59.755Z,26.60
2019-01-21T14:33:47.865Z,25.30
2019-01-21T14:36:41.767Z,26.20
2019-01-21T14:39:35.777Z,25.67
2019-01-21T14:42:57.793Z,27.37
2019-01-21T14:45:55.145Z,25.50
2019-01-21T14:48:43.409Z,20.30
2019-01-21T14:51:55.742Z,24.50
2019-01-21T14:54:57.701Z,19.27
2019-01-21T14:57:50.134Z,19.23
2019-01-21T15:00:44.545Z,13.10
2019-01-21T15:03:49.874Z,15.23
2019-01-21T15:07:05.011Z,15.37
2019-01-21T15:09:57.973Z,15.93
2019-01-21T15:13:04.685Z,16.37
2019-01-21T15:16:14.234Z,15.30
2019-01-21T15:19:39.621Z,16.20
2019-01-21T15:22:35.073Z,18.47
2019-01-21T15:25:41.953Z,11.33
2019-01-21T15:28:36.229Z,14.97
2019-01-21T15:31:23.715Z,12.90
2019-01-21T15:34:05.794Z,12.07
2019-01-21T15:37:00.005Z,14.17
2019-01-21T15:39:37.438Z,15.90
2019-01-21T15:42:28.612Z,13.03
2019-01-21T15:45:27.360Z,13.97
2019-01-21T15:48:26.601Z,13.63
2019-01-21T15:51:33.297Z,14.17
2019-01-21T15:54:27.697Z,12.90
2019-01-21T15:57:27.929Z,14.47
2019-01-21T16:00:41.200Z,20.03
2019-01-21T16:03:41.176Z,14.50
2019-01-21T16:06:56.249Z,15.00
2019-01-21T16:10:02.170Z,18.97
2019-01-21T16:12:59.445Z,15.23
2019-01-21T16:16:12.349Z,18.43
2019-01-21T16:18:46.701Z,19.10
2019-01-21T16:21:52.574Z,20.23
2019-01-21T16:24:49.282Z,21.97
2019-01-21T16:27:58.270Z,29.67
2019-01-21T16:30:37.986Z,27.53
2019-01-21T16:33:28.965Z,23.23
2019-01-21T16:36:15.753Z,25.40
2019-01-21T16:39:05.579Z,27.23
2019-01-21T16:42:12.897Z,27.03
2019-01-21T16:44:42.132Z,31.60
2019-01-21T16:47:10.722Z,33.40
2019-01-21T16:49:39.261Z,32.33
2019-01-21T16:52:07.691Z,36.63
2019-01-21T16:54:36.893Z,36.60
2019-01-21T16:57:05.372Z,34.33
2019-01-21T16:59:33.686Z,30.17
2019-01-21T17:02:02.109Z,32.03
2019-01-21T17:04:30.558Z,33.30
2019-01-21T17:06:58.974Z,28.33
2019-01-21T17:09:27.410Z,34.30
2019-01-21T17:11:55.935Z,32.90
2019-01-21T17:14:24.246Z,40.50
2019-01-21T17:16:52.666Z,43.87
2019-01-21T17:19:21.105Z,40.87
2019-01-21T17:21:49.628Z,28.30
2019-01-21T17:24:18.088Z,30.93
2019-01-21T17:26:46.614Z,33.07
2019-01-21T17:29:15.096Z,33.10
2019-01-21T17:31:43.501Z,28.97
2019-01-21T17:34:12.072Z,33.20
2019-01-21T17:36:40.402Z,36.37
2019-01-21T17:39:09.302Z,38.83
2019-01-21T17:41:38.013Z,37.83
2019-01-21T17:44:06.758Z,33.73
2019-01-21T17:46:35.181Z,36.53
2019-01-21T17:49:04.116Z,37.23
2019-01-21T17:51:34.346Z,37.70
2019-01-21T17:54:03.165Z,36.83
2019-01-21T17:56:34.977Z,36.17
2019-01-21T17:59:22.761Z,39.03
2019-01-21T18:01:51.197Z,39.37
2019-01-21T18:04:19.614Z,40.40
2019-01-21T18:06:48.125Z,41.83
2019-01-21T18:09:16.669Z,40.90
2019-01-21T18:11:44.984Z,35.57
2019-01-21T18:14:13.604Z,36.53
2019-01-21T18:16:42.112Z,38.17
2019-01-21T18:19:10.433Z,43.17
2019-01-21T18:21:40.265Z,44.43
2019-01-21T18:24:09.097Z,40.57
2019-01-21T18:26:37.406Z,39.40
2019-01-21T18:29:05.825Z,41.23
2019-01-21T18:31:34.337Z,41.47
2019-01-21T18:34:02.872Z,37.50
2019-01-21T18:36:33.458Z,38.70
2019-01-21T18:39:04.717Z,38.23
2019-01-21T18:41:33.502Z,38.67
2019-01-21T18:44:01.977Z,43.83
2019-01-21T18:46:33.374Z,43.13
2019-01-21T18:49:03.847Z,56.67
2019-01-21T18:51:32.289Z,47.57
2019-01-21T18:54:00.621Z,45.40
2019-01-21T18:56:29.119Z,45.33
2019-01-21T18:58:57.509Z,41.30
2019-01-21T19:01:27.112Z,40.83
2019-01-21T19:03:55.670Z,47.73
2019-01-21T19:06:25.246Z,42.00
2019-01-21T19:08:53.862Z,45.67
2019-01-21T19:11:22.357Z,44.27
2019-01-21T19:13:50.940Z,48.13
2019-01-21T19:16:19.366Z,45.90
2019-01-21T19:18:48.093Z,49.57
2019-01-21T19:21:16.466Z,75.47
2019-01-21T19:23:44.837Z,67.40
2019-01-21T19:26:13.965Z,63.87
2019-01-21T19:28:43.550Z,63.27
2019-01-21T19:31:13.813Z,65.40
2019-01-21T19:33:42.124Z,67.50
2019-01-21T19:36:10.722Z,66.77
2019-01-21T19:38:43.077Z,69.93
2019-01-21T19:41:11.712Z,63.20
2019-01-21T19:43:42.780Z,63.37
2019-01-21T19:46:11.300Z,62.80
2019-01-21T19:48:39.997Z,62.90
2019-01-21T19:51:08.380Z,67.47
2019-01-21T19:53:36.877Z,64.77
2019-01-21T19:56:05.611Z,68.47
2019-01-21T19:58:34.993Z,59.70
2019-01-21T20:01:03.789Z,68.80
2019-01-21T20:03:32.160Z,73.40
2019-01-21T20:06:00.681Z,70.63
2019-01-21T20:08:29.333Z,64.00
2019-01-21T20:10:57.840Z,62.93
2019-01-21T20:13:26.342Z,65.53
2019-01-21T20:15:56.799Z,69.97
2019-01-21T20:18:33.145Z,65.90
2019-01-21T20:21:04.454Z,64.53
2019-01-21T20:23:33.930Z,65.37
2019-01-21T20:26:03.564Z,64.90
2019-01-21T20:28:33.002Z,67.13
2019-01-21T20:31:01.729Z,67.27
2019-01-21T20:33:30.209Z,73.70
2019-01-21T20:35:58.780Z,72.60
2019-01-21T20:38:28.575Z,65.20
2019-01-21T20:40:57.247Z,71.57
2019-01-21T20:43:25.931Z,69.23
2019-01-21T20:45:56.422Z,62.73
2019-01-21T20:48:25.432Z,77.00
2019-01-21T20:50:58.803Z,70.17
2019-01-21T20:53:28.935Z,71.57
2019-01-21T20:55:58.185Z,65.40
2019-01-21T20:58:26.966Z,74.37
2019-01-21T21:00:55.938Z,70.53
2019-01-21T21:03:25.314Z,67.77
2019-01-21T21:05:55.222Z,71.60
2019-01-21T21:08:24.145Z,74.37
2019-01-21T21:10:53.183Z,65.40
2019-01-21T21:13:22.885Z,62.53
2019-01-21T21:15:51.884Z,65.53
2019-01-21T21:18:20.226Z,63.33
2019-01-21T21:20:49.727Z,65.27
2019-01-21T21:23:18.170Z,76.53
2019-01-21T21:25:46.460Z,77.80
2019-01-21T21:28:14.849Z,77.13
2019-01-21T21:30:43.248Z,73.42
2019-01-21T21:33:11.641Z,75.27
2019-01-21T21:35:39.954Z,72.23
2019-01-21T21:38:08.544Z,67.93
2019-01-21T21:40:36.940Z,67.23
2019-01-21T21:43:05.297Z,62.30
2019-01-21T21:45:34.154Z,66.53
2019-01-21T21:48:02.578Z,54.87
2019-01-21T21:50:32.833Z,57.87
2019-01-21T21:53:01.446Z,57.63
2019-01-21T21:55:29.955Z,56.57
2019-01-21T21:57:59.413Z,59.30
2019-01-21T22:00:28.597Z,56.60
2019-01-21T22:02:58.511Z,57.27
2019-01-21T22:05:27.060Z,59.23
2019-01-21T22:07:56.396Z,58.57
2019-01-21T22:10:26.726Z,62.30
2019-01-21T22:12:55.121Z,62.23
2019-01-21T22:15:23.818Z,64.13
2019-01-21T22:17:52.337Z,60.67
2019-01-21T22:20:22.693Z,59.90
2019-01-21T22:22:51.358Z,55.27
2019-01-21T22:25:21.424Z,51.73
2019-01-21T22:27:49.978Z,55.60
2019-01-21T22:30:20.597Z,63.65
2019-01-21T22:32:49.153Z,58.63
2019-01-21T22:35:17.697Z,63.37
2019-01-21T22:37:46.555Z,58.60
2019-01-21T22:40:17.053Z,49.93
2019-01-21T22:42:45.541Z,48.10
2019-01-21T22:45:15.192Z,56.53
2019-01-21T22:47:44.176Z,48.37
2019-01-21T22:50:14.061Z,51.00
2019-01-21T22:52:42.485Z,53.30
2019-01-21T22:55:12.239Z,52.63
2019-01-21T22:57:40.769Z,50.27
2019-01-21T23:00:44.216Z,48.63
2019-01-21T23:03:13.804Z,55.50
2019-01-21T23:05:42.320Z,49.55
2019-01-21T23:08:10.800Z,47.50
2019-01-21T23:10:39.568Z,45.80
2019-01-21T23:13:08.124Z,45.63
2019-01-21T23:15:37.764Z,41.20
2019-01-21T23:18:06.554Z,44.43
2019-01-21T23:20:36.074Z,42.17
2019-01-21T23:23:05.114Z,43.20
2019-01-21T23:25:33.621Z,37.47
2019-01-21T23:28:04.126Z,39.50
2019-01-21T23:30:33.005Z,36.43
2019-01-21T23:33:02.236Z,35.77
2019-01-21T23:35:30.886Z,37.17
2019-01-21T23:37:59.606Z,35.80
2019-01-21T23:40:28.165Z,34.80
2019-01-21T23:42:56.855Z,31.93
2019-01-21T23:45:25.293Z,28.90
2019-01-21T23:47:53.733Z,25.83
2019-01-21T23:50:23.841Z,27.00
2019-01-21T23:52:56.319Z,27.50
2019-01-21T23:55:22.754Z,30.80
2019-01-21T23:57:52.341Z,29.53
